sensor_id;sensor_type;location;lat;lon;timestamp;pressure;altitude;pressure_sealevel;temperature;humidity
80149;BME280;69473;42.426;26.644;2024-03-17T00:00:43;99405.16;;;6.96;84.88
80149;BME280;69473;42.426;26.644;2024-03-17T00:03:09;99390.50;;;6.92;85.19
80149;BME280;69473;42.426;26.644;2024-03-17T00:05:37;99398.06;;;6.83;84.84
80149;BME280;69473;42.426;26.644;2024-03-17T00:08:04;99398.00;;;6.80;85.19
80149;BME280;69473;42.426;26.644;2024-03-17T00:10:33;99401.41;;;6.79;85.19
80149;BME280;69473;42.426;26.644;2024-03-17T00:13:00;99402.34;;;6.82;85.38
80149;BME280;69473;42.426;26.644;2024-03-17T00:15:26;99394.59;;;6.81;85.28
80149;BME280;69473;42.426;26.644;2024-03-17T00:17:52;99397.03;;;6.75;85.04
80149;BME280;69473;42.426;26.644;2024-03-17T00:20:18;99396.88;;;6.65;85.43
80149;BME280;69473;42.426;26.644;2024-03-17T00:22:48;99399.31;;;6.59;85.93
80149;BME280;69473;42.426;26.644;2024-03-17T00:25:14;99388.84;;;6.50;86.11
80149;BME280;69473;42.426;26.644;2024-03-17T00:27:39;99392.31;;;6.52;86.19
80149;BME280;69473;42.426;26.644;2024-03-17T00:30:08;99388.16;;;6.59;85.29
80149;BME280;69473;42.426;26.644;2024-03-17T00:32:41;99392.63;;;6.67;85.57
80149;BME280;69473;42.426;26.644;2024-03-17T00:35:09;99387.66;;;6.77;85.30
80149;BME280;69473;42.426;26.644;2024-03-17T00:37:36;99376.53;;;6.79;84.72
80149;BME280;69473;42.426;26.644;2024-03-17T00:40:03;99377.41;;;6.80;84.74
80149;BME280;69473;42.426;26.644;2024-03-17T00:42:29;99375.66;;;6.79;84.39
80149;BME280;69473;42.426;26.644;2024-03-17T00:44:56;99375.47;;;6.69;84.57
80149;BME280;69473;42.426;26.644;2024-03-17T00:47:21;99375.47;;;6.68;84.74
80149;BME280;69473;42.426;26.644;2024-03-17T00:49:47;99381.41;;;6.65;84.48
80149;BME280;69473;42.426;26.644;2024-03-17T00:52:16;99378.59;;;6.53;84.48
80149;BME280;69473;42.426;26.644;2024-03-17T00:54:41;99377.75;;;6.53;84.57
80149;BME280;69473;42.426;26.644;2024-03-17T00:57:07;99374.31;;;6.54;84.44
80149;BME280;69473;42.426;26.644;2024-03-17T00:59:33;99371.66;;;6.49;83.85
80149;BME280;69473;42.426;26.644;2024-03-17T01:01:59;99379.41;;;6.51;83.56
80149;BME280;69473;42.426;26.644;2024-03-17T01:04:24;99368.97;;;6.43;83.83
80149;BME280;69473;42.426;26.644;2024-03-17T01:06:50;99371.41;;;6.37;84.14
80149;BME280;69473;42.426;26.644;2024-03-17T01:09:15;99376.31;;;6.24;84.28
80149;BME280;69473;42.426;26.644;2024-03-17T01:11:41;99372.72;;;6.16;84.36
80149;BME280;69473;42.426;26.644;2024-03-17T01:14:07;99377.78;;;6.13;84.91
80149;BME280;69473;42.426;26.644;2024-03-17T01:16:33;99370.97;;;6.14;84.27
80149;BME280;69473;42.426;26.644;2024-03-17T01:18:59;99368.41;;;6.14;84.14
80149;BME280;69473;42.426;26.644;2024-03-17T01:21:24;99362.09;;;6.01;84.16
80149;BME280;69473;42.426;26.644;2024-03-17T01:23:50;99358.50;;;5.93;84.40
80149;BME280;69473;42.426;26.644;2024-03-17T01:26:16;99355.84;;;5.90;84.27
80149;BME280;69473;42.426;26.644;2024-03-17T01:28:42;99355.00;;;5.91;83.93
80149;BME280;69473;42.426;26.644;2024-03-17T01:31:08;99345.28;;;5.77;83.45
80149;BME280;69473;42.426;26.644;2024-03-17T01:33:35;99353.63;;;5.67;84.06
80149;BME280;69473;42.426;26.644;2024-03-17T01:36:00;99357.88;;;5.65;84.50
80149;BME280;69473;42.426;26.644;2024-03-17T01:38:26;99351.88;;;5.66;84.27
80149;BME280;69473;42.426;26.644;2024-03-17T01:40:52;99347.50;;;5.62;84.76
80149;BME280;69473;42.426;26.644;2024-03-17T01:43:17;99350.94;;;5.61;85.06
80149;BME280;69473;42.426;26.644;2024-03-17T01:45:43;99346.81;;;5.69;84.83
80149;BME280;69473;42.426;26.644;2024-03-17T01:48:14;99350.16;;;5.65;84.16
80149;BME280;69473;42.426;26.644;2024-03-17T01:50:41;99355.84;;;5.52;83.89
80149;BME280;69473;42.426;26.644;2024-03-17T01:53:09;99361.44;;;5.36;84.82
80149;BME280;69473;42.426;26.644;2024-03-17T01:55:38;99365.31;;;5.18;85.83
80149;BME280;69473;42.426;26.644;2024-03-17T01:58:05;99349.75;;;5.12;86.00
80149;BME280;69473;42.426;26.644;2024-03-17T02:00:35;99356.84;;;5.22;84.58
80149;BME280;69473;42.426;26.644;2024-03-17T02:03:09;99355.75;;;5.13;85.34
80149;BME280;69473;42.426;26.644;2024-03-17T02:05:38;99354.97;;;5.15;85.12
80149;BME280;69473;42.426;26.644;2024-03-17T02:08:05;99354.06;;;5.13;85.41
80149;BME280;69473;42.426;26.644;2024-03-17T02:10:32;99348.84;;;5.10;84.77
80149;BME280;69473;42.426;26.644;2024-03-17T02:12:59;99352.09;;;5.03;85.84
80149;BME280;69473;42.426;26.644;2024-03-17T02:15:25;99347.81;;;5.02;85.53
80149;BME280;69473;42.426;26.644;2024-03-17T02:17:51;99346.19;;;5.07;85.28
80149;BME280;69473;42.426;26.644;2024-03-17T02:20:16;99352.19;;;5.07;85.51
80149;BME280;69473;42.426;26.644;2024-03-17T02:22:43;99350.22;;;4.96;85.75
80149;BME280;69473;42.426;26.644;2024-03-17T02:25:09;99341.59;;;4.94;85.21
80149;BME280;69473;42.426;26.644;2024-03-17T02:27:35;99342.34;;;4.90;85.91
80149;BME280;69473;42.426;26.644;2024-03-17T02:30:02;99351.88;;;4.94;86.09
80149;BME280;69473;42.426;26.644;2024-03-17T02:32:28;99343.16;;;4.89;85.60
80149;BME280;69473;42.426;26.644;2024-03-17T02:34:54;99346.50;;;4.84;85.98
80149;BME280;69473;42.426;26.644;2024-03-17T02:37:20;99347.50;;;4.90;86.63
80149;BME280;69473;42.426;26.644;2024-03-17T02:39:46;99340.75;;;4.95;85.63
80149;BME280;69473;42.426;26.644;2024-03-17T02:42:11;99349.28;;;4.94;84.84
80149;BME280;69473;42.426;26.644;2024-03-17T02:44:38;99339.78;;;4.90;85.68
80149;BME280;69473;42.426;26.644;2024-03-17T02:47:05;99344.91;;;4.90;85.06
80149;BME280;69473;42.426;26.644;2024-03-17T02:49:34;99336.91;;;4.77;86.28
80149;BME280;69473;42.426;26.644;2024-03-17T02:52:06;99343.59;;;4.72;85.86
80149;BME280;69473;42.426;26.644;2024-03-17T02:54:36;99340.28;;;4.76;85.45
80149;BME280;69473;42.426;26.644;2024-03-17T02:57:06;99334.97;;;4.70;84.81
80149;BME280;69473;42.426;26.644;2024-03-17T02:59:32;99337.56;;;4.70;85.33
80149;BME280;69473;42.426;26.644;2024-03-17T03:01:59;99337.56;;;4.70;85.23
80149;BME280;69473;42.426;26.644;2024-03-17T03:04:25;99340.19;;;4.73;85.55
80149;BME280;69473;42.426;26.644;2024-03-17T03:06:51;99340.13;;;4.70;85.61
80149;BME280;69473;42.426;26.644;2024-03-17T03:09:16;99333.41;;;4.75;85.34
80149;BME280;69473;42.426;26.644;2024-03-17T03:11:50;99338.31;;;4.66;84.29
80149;BME280;69473;42.426;26.644;2024-03-17T03:14:17;99343.28;;;4.60;84.65
80149;BME280;69473;42.426;26.644;2024-03-17T03:16:43;99344.47;;;4.39;86.02
80149;BME280;69473;42.426;26.644;2024-03-17T03:19:09;99344.56;;;4.44;86.23
80149;BME280;69473;42.426;26.644;2024-03-17T03:21:34;99351.50;;;4.47;85.88
80149;BME280;69473;42.426;26.644;2024-03-17T03:24:00;99348.31;;;4.55;85.94
80149;BME280;69473;42.426;26.644;2024-03-17T03:26:25;99358.69;;;4.60;86.27
80149;BME280;69473;42.426;26.644;2024-03-17T03:28:51;99351.75;;;4.56;86.28
80149;BME280;69473;42.426;26.644;2024-03-17T03:31:17;99351.75;;;4.56;85.84
80149;BME280;69473;42.426;26.644;2024-03-17T03:33:43;99358.50;;;4.54;86.67
80149;BME280;69473;42.426;26.644;2024-03-17T03:36:10;99356.88;;;4.56;86.36
80149;BME280;69473;42.426;26.644;2024-03-17T03:38:36;99355.22;;;4.58;85.75
80149;BME280;69473;42.426;26.644;2024-03-17T03:41:15;99356.88;;;4.56;85.99
80149;BME280;69473;42.426;26.644;2024-03-17T03:43:41;99358.50;;;4.54;86.62
80149;BME280;69473;42.426;26.644;2024-03-17T03:46:08;99362.78;;;4.53;86.92
80149;BME280;69473;42.426;26.644;2024-03-17T03:48:34;99358.59;;;4.57;86.66
80149;BME280;69473;42.426;26.644;2024-03-17T03:51:06;99365.25;;;4.49;86.44
80149;BME280;69473;42.426;26.644;2024-03-17T03:53:33;99370.38;;;4.49;86.82
80149;BME280;69473;42.426;26.644;2024-03-17T03:55:59;99367.13;;;4.56;86.31
80149;BME280;69473;42.426;26.644;2024-03-17T03:58:27;99358.44;;;4.51;86.43
80149;BME280;69473;42.426;26.644;2024-03-17T04:00:54;99370.63;;;4.58;86.94
80149;BME280;69473;42.426;26.644;2024-03-17T04:03:21;99363.19;;;4.69;87.13
80149;BME280;69473;42.426;26.644;2024-03-17T04:05:47;99365.50;;;4.58;86.49
80149;BME280;69473;42.426;26.644;2024-03-17T04:08:13;99365.25;;;4.49;86.98
80149;BME280;69473;42.426;26.644;2024-03-17T04:10:39;99366.88;;;4.47;87.41
80149;BME280;69473;42.426;26.644;2024-03-17T04:13:04;99377.16;;;4.47;87.19
80149;BME280;69473;42.426;26.644;2024-03-17T04:15:30;99375.25;;;4.39;88.46
80149;BME280;69473;42.426;26.644;2024-03-17T04:17:56;99384.34;;;4.30;89.23
80149;BME280;69473;42.426;26.644;2024-03-17T04:20:21;99392.19;;;4.34;88.90
80149;BME280;69473;42.426;26.644;2024-03-17T04:22:47;99389.84;;;4.42;88.86
80149;BME280;69473;42.426;26.644;2024-03-17T04:25:14;99391.63;;;4.45;88.91
80149;BME280;69473;42.426;26.644;2024-03-17T04:27:40;99382.44;;;4.53;88.17
80149;BME280;69473;42.426;26.644;2024-03-17T04:30:06;99385.59;;;4.43;88.95
80149;BME280;69473;42.426;26.644;2024-03-17T04:32:33;99396.13;;;4.52;88.27
80149;BME280;69473;42.426;26.644;2024-03-17T04:34:59;99393.13;;;4.68;87.06
80149;BME280;69473;42.426;26.644;2024-03-17T04:37:25;99393.47;;;4.80;87.02
80149;BME280;69473;42.426;26.644;2024-03-17T04:39:51;99398.03;;;5.25;84.32
80149;BME280;69473;42.426;26.644;2024-03-17T04:42:17;99398.84;;;5.59;83.46
80149;BME280;69473;42.426;26.644;2024-03-17T04:44:45;99405.50;;;5.87;81.58
80149;BME280;69473;42.426;26.644;2024-03-17T04:47:11;99410.34;;;6.11;80.05
80149;BME280;69473;42.426;26.644;2024-03-17T04:49:39;99397.97;;;5.95;80.43
80149;BME280;69473;42.426;26.644;2024-03-17T04:52:06;99394.06;;;5.74;81.27
80149;BME280;69473;42.426;26.644;2024-03-17T04:54:33;99398.56;;;6.22;79.72
80149;BME280;69473;42.426;26.644;2024-03-17T04:56:59;99394.91;;;6.52;79.85
80149;BME280;69473;42.426;26.644;2024-03-17T04:59:25;99395.50;;;6.39;79.12
80149;BME280;69473;42.426;26.644;2024-03-17T05:01:51;99406.41;;;6.27;80.10
80149;BME280;69473;42.426;26.644;2024-03-17T05:04:17;99390.72;;;6.16;80.37
80149;BME280;69473;42.426;26.644;2024-03-17T05:06:43;99414.25;;;6.33;81.10
80149;BME280;69473;42.426;26.644;2024-03-17T05:09:12;99402.75;;;6.58;81.36
80149;BME280;69473;42.426;26.644;2024-03-17T05:11:40;99410.22;;;6.91;80.71
80149;BME280;69473;42.426;26.644;2024-03-17T05:14:05;99408.44;;;6.86;80.47
80149;BME280;69473;42.426;26.644;2024-03-17T05:16:31;99400.44;;;7.21;79.75
80149;BME280;69473;42.426;26.644;2024-03-17T05:18:57;99400.53;;;7.81;77.32
80149;BME280;69473;42.426;26.644;2024-03-17T05:21:22;99401.38;;;8.40;73.97
80149;BME280;69473;42.426;26.644;2024-03-17T05:23:49;99408.69;;;8.77;73.80
80149;BME280;69473;42.426;26.644;2024-03-17T05:26:15;99405.94;;;8.61;74.25
80149;BME280;69473;42.426;26.644;2024-03-17T05:28:41;99393.00;;;8.59;75.95
80149;BME280;69473;42.426;26.644;2024-03-17T05:31:06;99405.03;;;8.59;75.60
80149;BME280;69473;42.426;26.644;2024-03-17T05:33:32;99403.75;;;8.99;74.52
80149;BME280;69473;42.426;26.644;2024-03-17T05:36:02;99402.38;;;9.32;73.27
80149;BME280;69473;42.426;26.644;2024-03-17T05:38:29;99397.06;;;10.45;69.66
80149;BME280;69473;42.426;26.644;2024-03-17T05:41:01;99407.59;;;10.91;67.48
80149;BME280;69473;42.426;26.644;2024-03-17T05:43:29;99399.03;;;11.59;65.38
80149;BME280;69473;42.426;26.644;2024-03-17T05:45:57;99409.34;;;11.80;62.70
80149;BME280;69473;42.426;26.644;2024-03-17T05:48:23;99405.94;;;11.88;63.07
80149;BME280;69473;42.426;26.644;2024-03-17T05:50:52;99408.91;;;13.12;58.97
80149;BME280;69473;42.426;26.644;2024-03-17T05:53:18;99414.44;;;12.45;61.10
80149;BME280;69473;42.426;26.644;2024-03-17T05:55:44;99423.22;;;11.73;63.14
80149;BME280;69473;42.426;26.644;2024-03-17T05:58:10;99422.38;;;11.68;63.21
80149;BME280;69473;42.426;26.644;2024-03-17T06:00:38;99426.69;;;11.32;66.08
80149;BME280;69473;42.426;26.644;2024-03-17T06:03:05;99425.81;;;11.47;65.23
80149;BME280;69473;42.426;26.644;2024-03-17T06:05:36;99427.53;;;11.45;64.56
80149;BME280;69473;42.426;26.644;2024-03-17T06:08:04;99426.69;;;11.82;63.04
80149;BME280;69473;42.426;26.644;2024-03-17T06:10:32;99428.41;;;12.04;62.49
80149;BME280;69473;42.426;26.644;2024-03-17T06:12:58;99427.50;;;12.20;61.93
80149;BME280;69473;42.426;26.644;2024-03-17T06:15:25;99424.69;;;12.79;60.33
80149;BME280;69473;42.426;26.644;2024-03-17T06:17:51;99426.13;;;13.35;57.09
80149;BME280;69473;42.426;26.644;2024-03-17T06:20:18;99430.84;;;13.96;56.44
80149;BME280;69473;42.426;26.644;2024-03-17T06:22:44;99425.72;;;14.69;53.23
80149;BME280;69473;42.426;26.644;2024-03-17T06:25:11;99433.13;;;14.99;53.04
80149;BME280;69473;42.426;26.644;2024-03-17T06:27:37;99433.38;;;14.81;53.37
80149;BME280;69473;42.426;26.644;2024-03-17T06:30:03;99440.69;;;14.48;55.14
80149;BME280;69473;42.426;26.644;2024-03-17T06:32:32;99441.00;;;14.21;54.57
80149;BME280;69473;42.426;26.644;2024-03-17T06:35:01;99443.69;;;14.90;54.19
80149;BME280;69473;42.426;26.644;2024-03-17T06:37:26;99439.41;;;15.46;52.50
80149;BME280;69473;42.426;26.644;2024-03-17T06:39:52;99445.50;;;16.93;49.00
80149;BME280;69473;42.426;26.644;2024-03-17T06:42:17;99449.25;;;18.91;44.22
80149;BME280;69473;42.426;26.644;2024-03-17T06:44:43;99455.03;;;18.07;45.74
80149;BME280;69473;42.426;26.644;2024-03-17T06:47:08;99451.34;;;18.14;43.61
80149;BME280;69473;42.426;26.644;2024-03-17T06:49:34;99443.50;;;19.36;41.45
80149;BME280;69473;42.426;26.644;2024-03-17T06:51:59;99436.19;;;19.18;41.41
80149;BME280;69473;42.426;26.644;2024-03-17T06:54:25;99450.97;;;18.92;42.28
80149;BME280;69473;42.426;26.644;2024-03-17T06:56:51;99454.22;;;16.02;47.28
80149;BME280;69473;42.426;26.644;2024-03-17T06:59:17;99449.16;;;18.63;43.97
80149;BME280;69473;42.426;26.644;2024-03-17T07:01:43;99453.72;;;19.45;41.34
80149;BME280;69473;42.426;26.644;2024-03-17T07:04:10;99453.63;;;20.28;40.29
80149;BME280;69473;42.426;26.644;2024-03-17T07:06:36;99446.19;;;21.77;37.11
80149;BME280;69473;42.426;26.644;2024-03-17T07:09:02;99449.59;;;22.63;34.63
80149;BME280;69473;42.426;26.644;2024-03-17T07:11:28;99448.78;;;23.00;34.26
80149;BME280;69473;42.426;26.644;2024-03-17T07:13:53;99439.25;;;23.52;33.31
80149;BME280;69473;42.426;26.644;2024-03-17T07:16:19;99439.13;;;21.12;36.17
80149;BME280;69473;42.426;26.644;2024-03-17T07:18:47;99434.41;;;21.20;36.90
80149;BME280;69473;42.426;26.644;2024-03-17T07:21:12;99450.69;;;20.11;38.45
80149;BME280;69473;42.426;26.644;2024-03-17T07:23:38;99439.88;;;21.81;34.98
80149;BME280;69473;42.426;26.644;2024-03-17T07:26:04;99439.63;;;20.01;37.50
80149;BME280;69473;42.426;26.644;2024-03-17T07:28:31;99446.66;;;17.93;41.30
80149;BME280;69473;42.426;26.644;2024-03-17T07:30:58;99451.56;;;16.95;42.22
80149;BME280;69473;42.426;26.644;2024-03-17T07:33:26;99431.22;;;19.65;37.63
80149;BME280;69473;42.426;26.644;2024-03-17T07:35:56;99428.72;;;20.85;36.06
80149;BME280;69473;42.426;26.644;2024-03-17T07:38:24;99443.06;;;22.30;34.68
80149;BME280;69473;42.426;26.644;2024-03-17T07:41:06;99428.13;;;23.08;33.24
80149;BME280;69473;42.426;26.644;2024-03-17T07:43:35;99435.81;;;22.15;34.13
80149;BME280;69473;42.426;26.644;2024-03-17T07:46:08;99435.63;;;20.41;37.72
80149;BME280;69473;42.426;26.644;2024-03-17T07:48:36;99440.47;;;18.92;40.37
80149;BME280;69473;42.426;26.644;2024-03-17T07:51:07;99435.13;;;18.33;42.50
80149;BME280;69473;42.426;26.644;2024-03-17T07:53:35;99442.38;;;17.53;43.49
80149;BME280;69473;42.426;26.644;2024-03-17T07:56:03;99434.03;;;16.98;45.32
80149;BME280;69473;42.426;26.644;2024-03-17T07:58:31;99437.69;;;16.00;46.89
80149;BME280;69473;42.426;26.644;2024-03-17T08:01:03;99439.00;;;16.22;48.69
80149;BME280;69473;42.426;26.644;2024-03-17T08:03:36;99429.53;;;15.65;48.28
80149;BME280;69473;42.426;26.644;2024-03-17T08:06:03;99429.25;;;15.82;49.96
80149;BME280;69473;42.426;26.644;2024-03-17T08:08:30;99429.84;;;16.00;49.46
80149;BME280;69473;42.426;26.644;2024-03-17T08:10:57;99430.47;;;15.60;49.10
80149;BME280;69473;42.426;26.644;2024-03-17T08:13:23;99434.28;;;14.80;50.79
80149;BME280;69473;42.426;26.644;2024-03-17T08:15:57;99431.09;;;15.77;49.69
80149;BME280;69473;42.426;26.644;2024-03-17T08:18:25;99417.97;;;16.30;49.11
80149;BME280;69473;42.426;26.644;2024-03-17T08:20:50;99425.28;;;16.57;47.38
80149;BME280;69473;42.426;26.644;2024-03-17T08:23:16;99425.88;;;16.25;47.18
80149;BME280;69473;42.426;26.644;2024-03-17T08:25:42;99419.94;;;16.62;46.91
80149;BME280;69473;42.426;26.644;2024-03-17T08:28:07;99420.00;;;16.59;46.91
80149;BME280;69473;42.426;26.644;2024-03-17T08:30:33;99414.91;;;16.95;46.62
80149;BME280;69473;42.426;26.644;2024-03-17T08:33:02;99403.03;;;16.78;47.13
80149;BME280;69473;42.426;26.644;2024-03-17T08:35:29;99401.88;;;16.05;47.74
80149;BME280;69473;42.426;26.644;2024-03-17T08:37:55;99407.56;;;16.27;47.60
80149;BME280;69473;42.426;26.644;2024-03-17T08:40:21;99413.88;;;16.15;48.03
80149;BME280;69473;42.426;26.644;2024-03-17T08:42:48;99415.25;;;16.34;48.29
80149;BME280;69473;42.426;26.644;2024-03-17T08:45:14;99413.84;;;16.61;48.49
80149;BME280;69473;42.426;26.644;2024-03-17T08:47:39;99407.56;;;16.25;47.10
80149;BME280;69473;42.426;26.644;2024-03-17T08:50:05;99404.41;;;16.53;50.16
80149;BME280;69473;42.426;26.644;2024-03-17T08:52:34;99405.41;;;16.01;48.93
80149;BME280;69473;42.426;26.644;2024-03-17T08:55:00;99395.06;;;16.41;49.00
80149;BME280;69473;42.426;26.644;2024-03-17T08:57:29;99405.75;;;15.82;50.39
80149;BME280;69473;42.426;26.644;2024-03-17T08:59:55;99395.91;;;16.42;49.60
80149;BME280;69473;42.426;26.644;2024-03-17T09:02:20;99404.03;;;15.81;50.83
80149;BME280;69473;42.426;26.644;2024-03-17T09:04:49;99394.75;;;15.62;48.57
80149;BME280;69473;42.426;26.644;2024-03-17T09:07:14;99389.16;;;16.31;48.85
80149;BME280;69473;42.426;26.644;2024-03-17T09:09:43;99384.22;;;16.16;48.85
80149;BME280;69473;42.426;26.644;2024-03-17T09:12:08;99387.97;;;16.03;50.00
80149;BME280;69473;42.426;26.644;2024-03-17T09:14:34;99391.88;;;15.80;50.11
80149;BME280;69473;42.426;26.644;2024-03-17T09:17:00;99392.31;;;16.49;50.59
80149;BME280;69473;42.426;26.644;2024-03-17T09:19:26;99376.00;;;16.79;49.02
80149;BME280;69473;42.426;26.644;2024-03-17T09:21:51;99377.38;;;16.96;47.27
80149;BME280;69473;42.426;26.644;2024-03-17T09:24:17;99369.91;;;17.16;47.90
80149;BME280;69473;42.426;26.644;2024-03-17T09:26:42;99377.28;;;16.99;47.87
80149;BME280;69473;42.426;26.644;2024-03-17T09:29:08;99364.44;;;17.25;48.76
80149;BME280;69473;42.426;26.644;2024-03-17T09:31:34;99368.03;;;17.21;48.13
80149;BME280;69473;42.426;26.644;2024-03-17T09:34:02;99370.19;;;17.04;48.26
80149;BME280;69473;42.426;26.644;2024-03-17T09:36:28;99364.72;;;17.13;47.27
80149;BME280;69473;42.426;26.644;2024-03-17T09:38:53;99358.34;;;17.25;48.89
80149;BME280;69473;42.426;26.644;2024-03-17T09:41:24;99356.09;;;17.09;47.63
80149;BME280;69473;42.426;26.644;2024-03-17T09:43:55;99360.56;;;17.42;48.65
80149;BME280;69473;42.426;26.644;2024-03-17T09:46:26;99356.66;;;17.58;47.82
80149;BME280;69473;42.426;26.644;2024-03-17T09:48:53;99357.50;;;17.60;46.77
80149;BME280;69473;42.426;26.644;2024-03-17T09:51:24;99353.88;;;17.64;47.52
80149;BME280;69473;42.426;26.644;2024-03-17T09:53:51;99355.09;;;17.51;47.22
80149;BME280;69473;42.426;26.644;2024-03-17T09:56:21;99353.47;;;17.81;47.14
80149;BME280;69473;42.426;26.644;2024-03-17T09:58:47;99357.53;;;17.93;45.10
80149;BME280;69473;42.426;26.644;2024-03-17T10:01:13;99349.56;;;17.63;46.93
80149;BME280;69473;42.426;26.644;2024-03-17T10:03:49;99355.34;;;17.42;47.65
80149;BME280;69473;42.426;26.644;2024-03-17T10:06:19;99345.22;;;17.26;47.54
80149;BME280;69473;42.426;26.644;2024-03-17T10:11:14;99351.66;;;17.83;46.47
80149;BME280;69473;42.426;26.644;2024-03-17T10:13:42;99355.78;;;16.86;47.02
80149;BME280;69473;42.426;26.644;2024-03-17T10:16:22;99351.19;;;16.54;49.55
80149;BME280;69473;42.426;26.644;2024-03-17T10:18:48;99349.66;;;16.45;48.97
80149;BME280;69473;42.426;26.644;2024-03-17T10:21:26;99335.03;;;16.35;48.72
80149;BME280;69473;42.426;26.644;2024-03-17T10:24:09;99349.34;;;16.59;48.26
80149;BME280;69473;42.426;26.644;2024-03-17T10:26:46;99344.47;;;16.85;47.20
80149;BME280;69473;42.426;26.644;2024-03-17T10:29:25;99337.63;;;16.78;47.11
80149;BME280;69473;42.426;26.644;2024-03-17T10:31:55;99333.41;;;16.70;47.57
80149;BME280;69473;42.426;26.644;2024-03-17T10:34:23;99337.88;;;17.41;47.13
80149;BME280;69473;42.426;26.644;2024-03-17T10:37:16;99338.34;;;17.57;46.38
80149;BME280;69473;42.426;26.644;2024-03-17T10:39:50;99338.63;;;17.10;46.76
80149;BME280;69473;42.426;26.644;2024-03-17T10:42:28;99342.50;;;17.65;45.67
80149;BME280;69473;42.426;26.644;2024-03-17T10:44:54;99323.22;;;16.98;46.13
80149;BME280;69473;42.426;26.644;2024-03-17T10:47:26;99321.38;;;17.71;44.93
80149;BME280;69473;42.426;26.644;2024-03-17T10:49:54;99320.75;;;17.27;46.25
80149;BME280;69473;42.426;26.644;2024-03-17T10:52:22;99326.38;;;17.82;45.24
80149;BME280;69473;42.426;26.644;2024-03-17T10:54:54;99314.25;;;17.76;44.89
80149;BME280;69473;42.426;26.644;2024-03-17T11:00:06;99312.06;;;17.25;44.06
80149;BME280;69473;42.426;26.644;2024-03-17T11:02:35;99306.72;;;17.64;45.56
80149;BME280;69473;42.426;26.644;2024-03-17T11:07:43;99294.09;;;18.11;43.66
80149;BME280;69473;42.426;26.644;2024-03-17T11:10:26;99289.56;;;18.46;43.26
80149;BME280;69473;42.426;26.644;2024-03-17T11:12:57;99287.47;;;18.57;42.97
80149;BME280;69473;42.426;26.644;2024-03-17T11:17:53;99285.75;;;17.97;41.92
80149;BME280;69473;42.426;26.644;2024-03-17T11:20:27;99272.72;;;18.53;42.49
80149;BME280;69473;42.426;26.644;2024-03-17T11:22:58;99268.31;;;18.83;40.90
80149;BME280;69473;42.426;26.644;2024-03-17T11:39:07;99258.97;;;18.75;41.71
80149;BME280;69473;42.426;26.644;2024-03-17T11:41:54;99256.09;;;18.24;42.16
80149;BME280;69473;42.426;26.644;2024-03-17T11:49:20;99240.28;;;17.98;42.54
80149;BME280;69473;42.426;26.644;2024-03-17T11:51:47;99251.03;;;17.89;41.70
80149;BME280;69473;42.426;26.644;2024-03-17T11:54:18;99240.91;;;18.36;42.47
80149;BME280;69473;42.426;26.644;2024-03-17T11:56:51;99233.78;;;18.96;40.61
80149;BME280;69473;42.426;26.644;2024-03-17T11:59:18;99227.53;;;19.25;40.21
80149;BME280;69473;42.426;26.644;2024-03-17T12:01:49;99228.84;;;19.38;40.45
80149;BME280;69473;42.426;26.644;2024-03-17T12:04:17;99224.91;;;19.25;39.80
80149;BME280;69473;42.426;26.644;2024-03-17T12:06:45;99228.97;;;19.35;41.31
80149;BME280;69473;42.426;26.644;2024-03-17T12:09:28;99221.97;;;19.34;39.76
80149;BME280;69473;42.426;26.644;2024-03-17T12:12:06;99220.91;;;19.14;39.96
80149;BME280;69473;42.426;26.644;2024-03-17T12:14:35;99208.47;;;19.20;41.04
80149;BME280;69473;42.426;26.644;2024-03-17T12:17:09;99216.81;;;19.31;38.82
80149;BME280;69473;42.426;26.644;2024-03-17T12:19:36;99213.53;;;19.49;38.46
80149;BME280;69473;42.426;26.644;2024-03-17T12:22:05;99207.13;;;18.81;39.13
80149;BME280;69473;42.426;26.644;2024-03-17T12:24:36;99214.75;;;18.61;39.81
80149;BME280;69473;42.426;26.644;2024-03-17T12:27:06;99201.88;;;18.53;40.43
80149;BME280;69473;42.426;26.644;2024-03-17T12:29:34;99194.63;;;18.05;40.68
80149;BME280;69473;42.426;26.644;2024-03-17T12:32:06;99182.53;;;17.70;40.11
80149;BME280;69473;42.426;26.644;2024-03-17T12:34:37;99200.72;;;17.74;40.60
80149;BME280;69473;42.426;26.644;2024-03-17T12:37:04;99206.28;;;18.53;40.66
80149;BME280;69473;42.426;26.644;2024-03-17T12:39:31;99202.34;;;18.38;38.91
80149;BME280;69473;42.426;26.644;2024-03-17T12:42:18;99197.88;;;18.69;40.23
80149;BME280;69473;42.426;26.644;2024-03-17T12:44:52;99186.53;;;18.41;39.79
80149;BME280;69473;42.426;26.644;2024-03-17T12:47:28;99188.81;;;18.80;40.35
80149;BME280;69473;42.426;26.644;2024-03-17T12:49:56;99181.25;;;18.97;39.88
80149;BME280;69473;42.426;26.644;2024-03-17T12:58:09;99183.41;;;18.30;39.74
80149;BME280;69473;42.426;26.644;2024-03-17T13:01:00;99186.53;;;18.41;38.65
80149;BME280;69473;42.426;26.644;2024-03-17T13:03:28;99180.69;;;18.59;37.83
80149;BME280;69473;42.426;26.644;2024-03-17T13:05:54;99179.19;;;18.52;37.49
80149;BME280;69473;42.426;26.644;2024-03-17T13:08:20;99167.69;;;18.28;38.36
80149;BME280;69473;42.426;26.644;2024-03-17T13:10:46;99158.28;;;18.49;37.74
80149;BME280;69473;42.426;26.644;2024-03-17T13:13:13;99163.97;;;18.62;37.46
80149;BME280;69473;42.426;26.644;2024-03-17T13:15:42;99171.56;;;18.73;37.48
80149;BME280;69473;42.426;26.644;2024-03-17T13:18:08;99165.91;;;18.85;36.74
80149;BME280;69473;42.426;26.644;2024-03-17T13:20:34;99157.81;;;18.08;37.92
80149;BME280;69473;42.426;26.644;2024-03-17T13:23:01;99164.94;;;18.33;39.88
80149;BME280;69473;42.426;26.644;2024-03-17T13:25:28;99159.72;;;18.03;37.94
80149;BME280;69473;42.426;26.644;2024-03-17T13:28:03;99155.84;;;17.87;38.64
80149;BME280;69473;42.426;26.644;2024-03-17T13:30:30;99157.44;;;18.20;36.83
80149;BME280;69473;42.426;26.644;2024-03-17T13:32:56;99151.16;;;18.26;37.96